sensor_id;sensor_type;location;lat;lon;timestamp;temperature;humidity
64855;DHT22;51321;50.428;8.378;2023-06-22T00:01:46;20.50;99.90
64855;DHT22;51321;50.428;8.378;2023-06-22T00:04:27;20.40;99.90
64855;DHT22;51321;50.428;8.378;2023-06-22T00:07:08;20.50;99.90
64855;DHT22;51321;50.428;8.378;2023-06-22T00:09:49;20.50;99.90
64855;DHT22;51321;50.428;8.378;2023-06-22T00:12:30;20.60;99.90
64855;DHT22;51321;50.428;8.378;2023-06-22T00:15:12;20.80;99.90
64855;DHT22;51321;50.428;8.378;2023-06-22T00:17:53;20.90;99.90
64855;DHT22;51321;50.428;8.378;2023-06-22T00:20:38;21.00;99.90
64855;DHT22;51321;50.428;8.378;2023-06-22T00:23:19;21.20;99.90
64855;DHT22;51321;50.428;8.378;2023-06-22T00:26:00;21.20;99.90
64855;DHT22;51321;50.428;8.378;2023-06-22T00:28:41;21.20;99.90
64855;DHT22;51321;50.428;8.378;2023-06-22T00:31:23;21.30;99.90
64855;DHT22;51321;50.428;8.378;2023-06-22T00:34:08;21.40;99.90
64855;DHT22;51321;50.428;8.378;2023-06-22T00:36:49;21.40;99.90
64855;DHT22;51321;50.428;8.378;2023-06-22T00:39:31;21.20;99.90
64855;DHT22;51321;50.428;8.378;2023-06-22T00:42:12;21.10;99.90
64855;DHT22;51321;50.428;8.378;2023-06-22T00:44:54;21.00;99.90
64855;DHT22;51321;50.428;8.378;2023-06-22T00:47:38;21.00;99.90
64855;DHT22;51321;50.428;8.378;2023-06-22T00:50:22;21.10;99.90
64855;DHT22;51321;50.428;8.378;2023-06-22T00:53:05;20.90;99.90
64855;DHT22;51321;50.428;8.378;2023-06-22T00:55:49;20.80;99.90
64855;DHT22;51321;50.428;8.378;2023-06-22T00:58:31;20.60;99.90
64855;DHT22;51321;50.428;8.378;2023-06-22T01:01:13;20.40;99.90
64855;DHT22;51321;50.428;8.378;2023-06-22T01:03:57;20.40;99.90
64855;DHT22;51321;50.428;8.378;2023-06-22T01:06:45;20.40;99.90
64855;DHT22;51321;50.428;8.378;2023-06-22T01:09:32;20.40;99.90
64855;DHT22;51321;50.428;8.378;2023-06-22T01:12:16;20.30;99.90
64855;DHT22;51321;50.428;8.378;2023-06-22T01:15:02;20.40;99.90
64855;DHT22;51321;50.428;8.378;2023-06-22T01:17:44;20.50;99.90
64855;DHT22;51321;50.428;8.378;2023-06-22T01:20:28;20.40;99.90
64855;DHT22;51321;50.428;8.378;2023-06-22T01:23:23;20.40;99.90
64855;DHT22;51321;50.428;8.378;2023-06-22T01:26:14;20.30;99.90
64855;DHT22;51321;50.428;8.378;2023-06-22T01:29:11;20.20;99.90
64855;DHT22;51321;50.428;8.378;2023-06-22T01:31:54;20.30;99.90
64855;DHT22;51321;50.428;8.378;2023-06-22T01:34:38;20.20;99.90
64855;DHT22;51321;50.428;8.378;2023-06-22T01:37:20;20.20;99.90
64855;DHT22;51321;50.428;8.378;2023-06-22T01:40:05;20.20;99.90
64855;DHT22;51321;50.428;8.378;2023-06-22T01:42:46;20.20;99.90
64855;DHT22;51321;50.428;8.378;2023-06-22T01:45:30;20.10;99.90
64855;DHT22;51321;50.428;8.378;2023-06-22T01:48:11;20.00;99.90
64855;DHT22;51321;50.428;8.378;2023-06-22T01:50:52;19.90;99.90
64855;DHT22;51321;50.428;8.378;2023-06-22T01:53:33;19.80;99.90
64855;DHT22;51321;50.428;8.378;2023-06-22T01:56:17;19.80;99.90
64855;DHT22;51321;50.428;8.378;2023-06-22T01:59:04;19.80;99.90
64855;DHT22;51321;50.428;8.378;2023-06-22T02:01:53;20.00;99.90
64855;DHT22;51321;50.428;8.378;2023-06-22T02:04:39;20.00;99.90
64855;DHT22;51321;50.428;8.378;2023-06-22T02:07:29;20.00;99.90
64855;DHT22;51321;50.428;8.378;2023-06-22T02:10:17;19.90;99.90
64855;DHT22;51321;50.428;8.378;2023-06-22T02:13:01;19.90;99.90
64855;DHT22;51321;50.428;8.378;2023-06-22T02:15:43;19.80;99.90
64855;DHT22;51321;50.428;8.378;2023-06-22T02:18:27;19.70;99.90
64855;DHT22;51321;50.428;8.378;2023-06-22T02:21:08;19.70;99.90
64855;DHT22;51321;50.428;8.378;2023-06-22T02:23:48;20.00;99.90
64855;DHT22;51321;50.428;8.378;2023-06-22T02:26:30;20.10;99.90
64855;DHT22;51321;50.428;8.378;2023-06-22T02:29:11;20.10;99.90
64855;DHT22;51321;50.428;8.378;2023-06-22T02:31:52;20.00;99.90
64855;DHT22;51321;50.428;8.378;2023-06-22T02:34:34;20.00;99.90
64855;DHT22;51321;50.428;8.378;2023-06-22T02:37:16;19.80;99.90
64855;DHT22;51321;50.428;8.378;2023-06-22T02:39:57;19.80;99.90
64855;DHT22;51321;50.428;8.378;2023-06-22T02:42:40;19.70;99.90
64855;DHT22;51321;50.428;8.378;2023-06-22T02:45:21;19.60;99.90
64855;DHT22;51321;50.428;8.378;2023-06-22T02:48:04;19.60;99.90
64855;DHT22;51321;50.428;8.378;2023-06-22T02:50:47;19.60;99.90
64855;DHT22;51321;50.428;8.378;2023-06-22T02:53:28;19.60;99.90
64855;DHT22;51321;50.428;8.378;2023-06-22T02:56:09;19.70;99.90
64855;DHT22;51321;50.428;8.378;2023-06-22T02:58:50;19.70;99.90
64855;DHT22;51321;50.428;8.378;2023-06-22T03:01:32;19.80;99.90
64855;DHT22;51321;50.428;8.378;2023-06-22T03:04:23;19.80;99.90
64855;DHT22;51321;50.428;8.378;2023-06-22T03:07:06;19.70;99.90
64855;DHT22;51321;50.428;8.378;2023-06-22T03:09:49;19.60;99.90
64855;DHT22;51321;50.428;8.378;2023-06-22T03:12:32;19.60;99.90
64855;DHT22;51321;50.428;8.378;2023-06-22T03:15:13;19.50;99.90
64855;DHT22;51321;50.428;8.378;2023-06-22T03:17:54;19.60;99.90
64855;DHT22;51321;50.428;8.378;2023-06-22T03:20:36;19.60;99.90
64855;DHT22;51321;50.428;8.378;2023-06-22T03:23:18;19.60;99.90
64855;DHT22;51321;50.428;8.378;2023-06-22T03:25:59;19.60;99.90
64855;DHT22;51321;50.428;8.378;2023-06-22T03:28:41;19.60;99.90
64855;DHT22;51321;50.428;8.378;2023-06-22T03:31:22;19.60;99.90
64855;DHT22;51321;50.428;8.378;2023-06-22T03:34:03;19.80;99.90
64855;DHT22;51321;50.428;8.378;2023-06-22T03:36:44;19.80;99.90
64855;DHT22;51321;50.428;8.378;2023-06-22T03:39:27;19.80;99.90
64855;DHT22;51321;50.428;8.378;2023-06-22T03:42:08;19.80;99.90
64855;DHT22;51321;50.428;8.378;2023-06-22T03:44:49;19.70;99.90
64855;DHT22;51321;50.428;8.378;2023-06-22T03:47:30;19.70;99.90
64855;DHT22;51321;50.428;8.378;2023-06-22T03:50:11;19.70;99.90
64855;DHT22;51321;50.428;8.378;2023-06-22T03:52:54;19.80;99.90
64855;DHT22;51321;50.428;8.378;2023-06-22T03:55:36;19.70;99.90
64855;DHT22;51321;50.428;8.378;2023-06-22T03:58:17;19.70;99.90
64855;DHT22;51321;50.428;8.378;2023-06-22T04:00:59;19.60;99.90
64855;DHT22;51321;50.428;8.378;2023-06-22T04:03:43;19.70;99.90
64855;DHT22;51321;50.428;8.378;2023-06-22T04:06:24;19.70;99.90
64855;DHT22;51321;50.428;8.378;2023-06-22T04:09:06;19.80;99.90
64855;DHT22;51321;50.428;8.378;2023-06-22T04:11:48;20.00;99.90
64855;DHT22;51321;50.428;8.378;2023-06-22T04:14:29;20.10;99.90
64855;DHT22;51321;50.428;8.378;2023-06-22T04:17:10;20.10;99.90
64855;DHT22;51321;50.428;8.378;2023-06-22T04:19:54;20.10;99.90
64855;DHT22;51321;50.428;8.378;2023-06-22T04:22:35;20.10;99.90
64855;DHT22;51321;50.428;8.378;2023-06-22T04:25:22;20.10;99.90
64855;DHT22;51321;50.428;8.378;2023-06-22T04:28:05;20.20;99.90
64855;DHT22;51321;50.428;8.378;2023-06-22T04:30:51;20.30;99.90
64855;DHT22;51321;50.428;8.378;2023-06-22T04:33:37;20.20;99.90
64855;DHT22;51321;50.428;8.378;2023-06-22T04:36:21;20.20;99.90
64855;DHT22;51321;50.428;8.378;2023-06-22T04:39:04;20.10;99.90
64855;DHT22;51321;50.428;8.378;2023-06-22T04:41:45;20.10;99.90
64855;DHT22;51321;50.428;8.378;2023-06-22T04:44:27;20.30;99.90
64855;DHT22;51321;50.428;8.378;2023-06-22T04:47:08;20.30;99.90
64855;DHT22;51321;50.428;8.378;2023-06-22T04:49:50;20.40;99.90
64855;DHT22;51321;50.428;8.378;2023-06-22T04:52:32;20.30;99.90
64855;DHT22;51321;50.428;8.378;2023-06-22T04:55:14;20.40;99.90
64855;DHT22;51321;50.428;8.378;2023-06-22T04:57:57;20.40;99.90
64855;DHT22;51321;50.428;8.378;2023-06-22T05:00:45;20.60;99.90
64855;DHT22;51321;50.428;8.378;2023-06-22T05:03:26;20.60;99.90
64855;DHT22;51321;50.428;8.378;2023-06-22T05:06:07;20.50;99.90
64855;DHT22;51321;50.428;8.378;2023-06-22T05:08:48;20.50;99.90
64855;DHT22;51321;50.428;8.378;2023-06-22T05:11:32;20.40;99.90
64855;DHT22;51321;50.428;8.378;2023-06-22T05:14:15;20.40;99.90
64855;DHT22;51321;50.428;8.378;2023-06-22T05:16:58;20.30;99.90
64855;DHT22;51321;50.428;8.378;2023-06-22T05:19:43;20.30;99.90
64855;DHT22;51321;50.428;8.378;2023-06-22T05:22:27;20.50;99.90
64855;DHT22;51321;50.428;8.378;2023-06-22T05:25:10;20.60;99.90
64855;DHT22;51321;50.428;8.378;2023-06-22T05:27:51;20.70;99.90
64855;DHT22;51321;50.428;8.378;2023-06-22T05:30:32;20.80;99.90
64855;DHT22;51321;50.428;8.378;2023-06-22T05:33:14;21.00;99.90
64855;DHT22;51321;50.428;8.378;2023-06-22T05:35:55;21.30;99.90
64855;DHT22;51321;50.428;8.378;2023-06-22T05:38:36;21.40;99.90
64855;DHT22;51321;50.428;8.378;2023-06-22T05:41:18;21.50;99.90
64855;DHT22;51321;50.428;8.378;2023-06-22T05:43:59;21.30;99.90
64855;DHT22;51321;50.428;8.378;2023-06-22T05:46:43;21.40;99.90
64855;DHT22;51321;50.428;8.378;2023-06-22T05:49:27;21.50;99.90
64855;DHT22;51321;50.428;8.378;2023-06-22T05:52:12;21.70;99.90
64855;DHT22;51321;50.428;8.378;2023-06-22T05:54:54;21.60;99.90
64855;DHT22;51321;50.428;8.378;2023-06-22T05:57:35;21.80;99.90
64855;DHT22;51321;50.428;8.378;2023-06-22T06:00:17;22.00;99.90
64855;DHT22;51321;50.428;8.378;2023-06-22T06:02:58;22.10;99.90
64855;DHT22;51321;50.428;8.378;2023-06-22T06:05:44;22.10;99.90
64855;DHT22;51321;50.428;8.378;2023-06-22T06:08:25;22.10;99.90
64855;DHT22;51321;50.428;8.378;2023-06-22T06:11:07;22.20;99.90
64855;DHT22;51321;50.428;8.378;2023-06-22T06:13:48;22.20;99.90
64855;DHT22;51321;50.428;8.378;2023-06-22T06:16:29;22.30;99.90
64855;DHT22;51321;50.428;8.378;2023-06-22T06:19:11;22.40;99.90
64855;DHT22;51321;50.428;8.378;2023-06-22T06:21:54;22.30;99.90
64855;DHT22;51321;50.428;8.378;2023-06-22T06:24:36;22.30;99.90
64855;DHT22;51321;50.428;8.378;2023-06-22T06:27:17;22.50;99.90
64855;DHT22;51321;50.428;8.378;2023-06-22T06:29:59;22.70;99.90
64855;DHT22;51321;50.428;8.378;2023-06-22T06:32:42;22.90;99.90
64855;DHT22;51321;50.428;8.378;2023-06-22T06:35:24;23.20;99.90
64855;DHT22;51321;50.428;8.378;2023-06-22T06:38:07;23.30;99.90
64855;DHT22;51321;50.428;8.378;2023-06-22T06:40:48;23.40;99.90
64855;DHT22;51321;50.428;8.378;2023-06-22T06:43:29;23.50;99.90
64855;DHT22;51321;50.428;8.378;2023-06-22T06:46:11;23.60;99.90
64855;DHT22;51321;50.428;8.378;2023-06-22T06:48:53;23.50;99.90
64855;DHT22;51321;50.428;8.378;2023-06-22T06:51:35;23.40;99.90
64855;DHT22;51321;50.428;8.378;2023-06-22T06:54:18;23.40;99.90
64855;DHT22;51321;50.428;8.378;2023-06-22T06:57:00;23.30;99.90
64855;DHT22;51321;50.428;8.378;2023-06-22T06:59:42;23.40;99.90
64855;DHT22;51321;50.428;8.378;2023-06-22T07:02:24;23.40;99.90
64855;DHT22;51321;50.428;8.378;2023-06-22T07:05:05;23.40;99.90
64855;DHT22;51321;50.428;8.378;2023-06-22T07:07:46;23.50;99.90
64855;DHT22;51321;50.428;8.378;2023-06-22T07:10:30;23.60;99.90
64855;DHT22;51321;50.428;8.378;2023-06-22T07:13:10;23.80;99.90
64855;DHT22;51321;50.428;8.378;2023-06-22T07:15:52;23.90;99.90
64855;DHT22;51321;50.428;8.378;2023-06-22T07:18:34;24.10;99.90
64855;DHT22;51321;50.428;8.378;2023-06-22T07:21:14;24.40;99.90
64855;DHT22;51321;50.428;8.378;2023-06-22T07:23:56;24.60;99.90
64855;DHT22;51321;50.428;8.378;2023-06-22T07:26:39;24.80;99.90
64855;DHT22;51321;50.428;8.378;2023-06-22T07:29:26;25.00;99.90
64855;DHT22;51321;50.428;8.378;2023-06-22T07:32:08;25.00;99.90
64855;DHT22;51321;50.428;8.378;2023-06-22T07:34:48;24.90;99.90
64855;DHT22;51321;50.428;8.378;2023-06-22T07:37:29;25.00;99.90
64855;DHT22;51321;50.428;8.378;2023-06-22T07:40:12;25.10;99.90
64855;DHT22;51321;50.428;8.378;2023-06-22T07:42:55;25.20;99.90
64855;DHT22;51321;50.428;8.378;2023-06-22T07:45:37;25.40;99.90
64855;DHT22;51321;50.428;8.378;2023-06-22T07:48:21;25.50;99.90
64855;DHT22;51321;50.428;8.378;2023-06-22T07:51:02;25.50;99.90
64855;DHT22;51321;50.428;8.378;2023-06-22T07:53:44;25.50;99.90
64855;DHT22;51321;50.428;8.378;2023-06-22T07:56:25;25.50;99.90
64855;DHT22;51321;50.428;8.378;2023-06-22T07:59:07;25.50;99.90
64855;DHT22;51321;50.428;8.378;2023-06-22T08:01:51;25.50;99.90
64855;DHT22;51321;50.428;8.378;2023-06-22T08:04:33;25.70;99.90
64855;DHT22;51321;50.428;8.378;2023-06-22T08:07:15;25.70;99.90
64855;DHT22;51321;50.428;8.378;2023-06-22T08:10:00;25.80;99.90
64855;DHT22;51321;50.428;8.378;2023-06-22T08:12:42;25.80;99.90
64855;DHT22;51321;50.428;8.378;2023-06-22T08:18:07;26.00;99.90
64855;DHT22;51321;50.428;8.378;2023-06-22T08:20:47;26.10;99.90
64855;DHT22;51321;50.428;8.378;2023-06-22T08:23:30;26.30;99.90
64855;DHT22;51321;50.428;8.378;2023-06-22T08:26:14;26.20;99.90
64855;DHT22;51321;50.428;8.378;2023-06-22T08:28:55;26.20;99.90
64855;DHT22;51321;50.428;8.378;2023-06-22T08:31:39;26.20;99.90
64855;DHT22;51321;50.428;8.378;2023-06-22T08:34:20;26.30;99.90
64855;DHT22;51321;50.428;8.378;2023-06-22T08:37:07;26.40;99.90
64855;DHT22;51321;50.428;8.378;2023-06-22T08:39:49;26.40;99.90
64855;DHT22;51321;50.428;8.378;2023-06-22T08:42:30;26.50;99.90
64855;DHT22;51321;50.428;8.378;2023-06-22T08:45:12;26.60;99.90
64855;DHT22;51321;50.428;8.378;2023-06-22T08:47:55;26.70;99.90
64855;DHT22;51321;50.428;8.378;2023-06-22T08:50:36;27.00;99.90
64855;DHT22;51321;50.428;8.378;2023-06-22T08:53:17;27.20;99.90
64855;DHT22;51321;50.428;8.378;2023-06-22T08:55:58;27.10;99.90
64855;DHT22;51321;50.428;8.378;2023-06-22T08:58:39;27.00;99.90
64855;DHT22;51321;50.428;8.378;2023-06-22T09:01:20;27.00;99.90
64855;DHT22;51321;50.428;8.378;2023-06-22T09:04:02;27.10;99.90
64855;DHT22;51321;50.428;8.378;2023-06-22T09:06:46;27.00;99.90
64855;DHT22;51321;50.428;8.378;2023-06-22T09:09:28;27.00;99.90
64855;DHT22;51321;50.428;8.378;2023-06-22T09:12:09;27.00;99.90
64855;DHT22;51321;50.428;8.378;2023-06-22T09:14:51;27.00;99.90
64855;DHT22;51321;50.428;8.378;2023-06-22T09:17:33;27.10;99.90
64855;DHT22;51321;50.428;8.378;2023-06-22T09:20:16;27.40;99.90
64855;DHT22;51321;50.428;8.378;2023-06-22T09:22:57;27.70;99.90
64855;DHT22;51321;50.428;8.378;2023-06-22T09:25:38;27.80;99.90
64855;DHT22;51321;50.428;8.378;2023-06-22T09:28:19;27.80;99.90
64855;DHT22;51321;50.428;8.378;2023-06-22T09:31:00;28.10;99.90
64855;DHT22;51321;50.428;8.378;2023-06-22T09:33:41;28.30;99.90
64855;DHT22;51321;50.428;8.378;2023-06-22T09:36:24;28.60;99.90
64855;DHT22;51321;50.428;8.378;2023-06-22T09:39:05;28.50;99.90
64855;DHT22;51321;50.428;8.378;2023-06-22T09:41:46;28.50;99.90
64855;DHT22;51321;50.428;8.378;2023-06-22T09:44:27;28.40;99.90
64855;DHT22;51321;50.428;8.378;2023-06-22T09:47:08;28.60;99.90
64855;DHT22;51321;50.428;8.378;2023-06-22T09:49:49;28.70;99.90
64855;DHT22;51321;50.428;8.378;2023-06-22T09:52:33;29.10;98.90
64855;DHT22;51321;50.428;8.378;2023-06-22T09:55:14;29.30;98.80
64855;DHT22;51321;50.428;8.378;2023-06-22T09:57:59;29.30;98.60
64855;DHT22;51321;50.428;8.378;2023-06-22T10:00:42;29.20;97.60
64855;DHT22;51321;50.428;8.378;2023-06-22T10:03:23;29.10;98.50
64855;DHT22;51321;50.428;8.378;2023-06-22T10:06:05;28.90;98.00
64855;DHT22;51321;50.428;8.378;2023-06-22T10:08:49;28.50;97.80
64855;DHT22;51321;50.428;8.378;2023-06-22T10:11:30;28.20;98.90
64855;DHT22;51321;50.428;8.378;2023-06-22T10:14:14;28.00;99.10
64855;DHT22;51321;50.428;8.378;2023-06-22T10:16:56;28.10;98.90
64855;DHT22;51321;50.428;8.378;2023-06-22T10:19:37;28.30;98.60
64855;DHT22;51321;50.428;8.378;2023-06-22T10:22:24;28.70;98.50
64855;DHT22;51321;50.428;8.378;2023-06-22T10:25:09;29.00;97.80
64855;DHT22;51321;50.428;8.378;2023-06-22T10:27:51;29.20;98.10
64855;DHT22;51321;50.428;8.378;2023-06-22T10:30:32;29.30;97.70
64855;DHT22;51321;50.428;8.378;2023-06-22T10:33:14;29.60;97.10
64855;DHT22;51321;50.428;8.378;2023-06-22T10:35:56;29.90;97.30
64855;DHT22;51321;50.428;8.378;2023-06-22T10:38:36;30.00;95.90
64855;DHT22;51321;50.428;8.378;2023-06-22T10:41:18;29.90;96.40
64855;DHT22;51321;50.428;8.378;2023-06-22T10:43:59;29.50;97.10
64855;DHT22;51321;50.428;8.378;2023-06-22T10:46:40;29.50;97.30
64855;DHT22;51321;50.428;8.378;2023-06-22T10:49:21;29.70;96.00
64855;DHT22;51321;50.428;8.378;2023-06-22T10:52:03;29.70;97.00
64855;DHT22;51321;50.428;8.378;2023-06-22T10:54:44;29.90;96.10
64855;DHT22;51321;50.428;8.378;2023-06-22T10:57:27;30.20;95.50
64855;DHT22;51321;50.428;8.378;2023-06-22T11:00:08;30.00;95.90
64855;DHT22;51321;50.428;8.378;2023-06-22T11:02:51;30.00;96.10
64855;DHT22;51321;50.428;8.378;2023-06-22T11:05:32;30.40;95.60
64855;DHT22;51321;50.428;8.378;2023-06-22T11:08:13;30.30;95.30
64855;DHT22;51321;50.428;8.378;2023-06-22T11:10:54;30.10;94.70
64855;DHT22;51321;50.428;8.378;2023-06-22T11:13:38;30.20;95.90
64855;DHT22;51321;50.428;8.378;2023-06-22T11:16:19;29.80;94.60
64855;DHT22;51321;50.428;8.378;2023-06-22T11:18:59;29.70;94.80
64855;DHT22;51321;50.428;8.378;2023-06-22T11:21:40;29.90;94.80
64855;DHT22;51321;50.428;8.378;2023-06-22T11:24:21;30.20;94.00
64855;DHT22;51321;50.428;8.378;2023-06-22T11:27:03;30.60;94.20
64855;DHT22;51321;50.428;8.378;2023-06-22T11:29:45;30.90;93.60
64855;DHT22;51321;50.428;8.378;2023-06-22T11:32:26;30.70;93.60
64855;DHT22;51321;50.428;8.378;2023-06-22T11:35:07;30.80;93.90
64855;DHT22;51321;50.428;8.378;2023-06-22T11:37:48;30.70;93.50
64855;DHT22;51321;50.428;8.378;2023-06-22T11:40:29;30.90;93.60
64855;DHT22;51321;50.428;8.378;2023-06-22T11:43:11;31.00;93.20
64855;DHT22;51321;50.428;8.378;2023-06-22T11:45:56;31.10;93.50
64855;DHT22;51321;50.428;8.378;2023-06-22T11:48:37;31.20;92.70
64855;DHT22;51321;50.428;8.378;2023-06-22T11:51:21;31.40;92.40
64855;DHT22;51321;50.428;8.378;2023-06-22T11:54:02;31.70;92.40
64855;DHT22;51321;50.428;8.378;2023-06-22T11:56:43;31.70;91.70
64855;DHT22;51321;50.428;8.378;2023-06-22T11:59:24;31.50;91.00
64855;DHT22;51321;50.428;8.378;2023-06-22T12:02:06;31.40;91.70
64855;DHT22;51321;50.428;8.378;2023-06-22T12:04:48;31.20;91.10
64855;DHT22;51321;50.428;8.378;2023-06-22T12:07:32;31.10;91.10
64855;DHT22;51321;50.428;8.378;2023-06-22T12:10:13;31.30;92.10
64855;DHT22;51321;50.428;8.378;2023-06-22T12:12:54;31.60;91.20
64855;DHT22;51321;50.428;8.378;2023-06-22T12:15:37;31.80;91.20
64855;DHT22;51321;50.428;8.378;2023-06-22T12:18:19;32.20;90.90
64855;DHT22;51321;50.428;8.378;2023-06-22T12:21:01;32.50;88.90
64855;DHT22;51321;50.428;8.378;2023-06-22T12:23:42;32.50;89.30
64855;DHT22;51321;50.428;8.378;2023-06-22T12:26:23;32.30;87.40
64855;DHT22;51321;50.428;8.378;2023-06-22T12:29:04;32.40;88.80
64855;DHT22;51321;50.428;8.378;2023-06-22T12:31:45;32.60;87.40
64855;DHT22;51321;50.428;8.378;2023-06-22T12:34:27;32.50;87.40
64855;DHT22;51321;50.428;8.378;2023-06-22T12:37:08;32.60;87.00
64855;DHT22;51321;50.428;8.378;2023-06-22T12:39:49;32.70;86.40
64855;DHT22;51321;50.428;8.378;2023-06-22T12:42:30;32.80;85.30
64855;DHT22;51321;50.428;8.378;2023-06-22T12:45:11;32.90;86.20
64855;DHT22;51321;50.428;8.378;2023-06-22T12:47:52;33.00;86.50
64855;DHT22;51321;50.428;8.378;2023-06-22T12:50:35;33.00;85.20
64855;DHT22;51321;50.428;8.378;2023-06-22T12:53:15;33.00;85.80
64855;DHT22;51321;50.428;8.378;2023-06-22T12:55:56;33.10;86.70
64855;DHT22;51321;50.428;8.378;2023-06-22T12:58:38;33.00;85.50
64855;DHT22;51321;50.428;8.378;2023-06-22T13:01:19;32.60;84.70
64855;DHT22;51321;50.428;8.378;2023-06-22T13:04:01;32.50;86.80
64855;DHT22;51321;50.428;8.378;2023-06-22T13:06:44;32.80;85.10
64855;DHT22;51321;50.428;8.378;2023-06-22T13:09:26;33.00;84.30
64855;DHT22;51321;50.428;8.378;2023-06-22T13:12:08;33.00;85.50
64855;DHT22;51321;50.428;8.378;2023-06-22T13:14:49;33.10;84.90
64855;DHT22;51321;50.428;8.378;2023-06-22T13:17:31;33.10;83.50
64855;DHT22;51321;50.428;8.378;2023-06-22T13:20:12;33.10;83.70
64855;DHT22;51321;50.428;8.378;2023-06-22T13:22:54;32.90;84.90
64855;DHT22;51321;50.428;8.378;2023-06-22T13:25:36;33.10;85.30
64855;DHT22;51321;50.428;8.378;2023-06-22T13:28:18;33.40;84.60
64855;DHT22;51321;50.428;8.378;2023-06-22T13:30:59;33.40;82.20
64855;DHT22;51321;50.428;8.378;2023-06-22T13:33:41;33.20;82.70
64855;DHT22;51321;50.428;8.378;2023-06-22T13:36:25;33.20;82.60
64855;DHT22;51321;50.428;8.378;2023-06-22T13:39:07;33.10;83.90
64855;DHT22;51321;50.428;8.378;2023-06-22T13:41:49;33.20;83.30
64855;DHT22;51321;50.428;8.378;2023-06-22T13:44:30;33.40;82.90
64855;DHT22;51321;50.428;8.378;2023-06-22T13:47:12;33.40;83.00
64855;DHT22;51321;50.428;8.378;2023-06-22T13:49:54;33.40;84.10
64855;DHT22;51321;50.428;8.378;2023-06-22T13:52:36;33.50;81.90
64855;DHT22;51321;50.428;8.378;2023-06-22T13:55:20;33.20;82.40
64855;DHT22;51321;50.428;8.378;2023-06-22T13:58:02;32.90;81.90
64855;DHT22;51321;50.428;8.378;2023-06-22T14:00:43;32.80;83.40
64855;DHT22;51321;50.428;8.378;2023-06-22T14:03:24;32.70;83.80
64855;DHT22;51321;50.428;8.378;2023-06-22T14:06:05;32.40;83.80
64855;DHT22;51321;50.428;8.378;2023-06-22T14:08:46;32.20;85.30
64855;DHT22;51321;50.428;8.378;2023-06-22T14:11:30;31.90;85.30
64855;DHT22;51321;50.428;8.378;2023-06-22T14:14:13;32.10;86.10
64855;DHT22;51321;50.428;8.378;2023-06-22T14:16:54;32.20;86.60
64855;DHT22;51321;50.428;8.378;2023-06-22T14:19:35;32.00;86.20
64855;DHT22;51321;50.428;8.378;2023-06-22T14:22:17;31.90;87.90
64855;DHT22;51321;50.428;8.378;2023-06-22T14:24:58;31.60;86.80
64855;DHT22;51321;50.428;8.378;2023-06-22T14:27:40;31.30;87.00
64855;DHT22;51321;50.428;8.378;2023-06-22T14:30:23;31.10;85.10
64855;DHT22;51321;50.428;8.378;2023-06-22T14:33:04;31.00;82.30
64855;DHT22;51321;50.428;8.378;2023-06-22T14:35:45;30.80;81.60
64855;DHT22;51321;50.428;8.378;2023-06-22T14:38:27;30.60;81.40
64855;DHT22;51321;50.428;8.378;2023-06-22T14:41:08;30.40;82.20
64855;DHT22;51321;50.428;8.378;2023-06-22T14:43:52;30.30;85.40
64855;DHT22;51321;50.428;8.378;2023-06-22T14:46:33;30.00;86.70
64855;DHT22;51321;50.428;8.378;2023-06-22T14:49:14;29.90;88.50
64855;DHT22;51321;50.428;8.378;2023-06-22T14:51:55;29.80;89.30
64855;DHT22;51321;50.428;8.378;2023-06-22T14:54:36;29.60;90.10
64855;DHT22;51321;50.428;8.378;2023-06-22T14:57:17;29.50;90.30
64855;DHT22;51321;50.428;8.378;2023-06-22T15:00:00;29.40;90.60
64855;DHT22;51321;50.428;8.378;2023-06-22T15:02:42;29.30;90.90
64855;DHT22;51321;50.428;8.378;2023-06-22T15:05:23;29.10;91.20
64855;DHT22;51321;50.428;8.378;2023-06-22T15:08:04;29.10;91.70
64855;DHT22;51321;50.428;8.378;2023-06-22T15:10:45;29.00;92.10
64855;DHT22;51321;50.428;8.378;2023-06-22T15:13:26;29.00;92.30
64855;DHT22;51321;50.428;8.378;2023-06-22T15:16:10;28.90;92.30
64855;DHT22;51321;50.428;8.378;2023-06-22T15:18:52;28.80;92.80
64855;DHT22;51321;50.428;8.378;2023-06-22T15:21:33;28.80;92.80
64855;DHT22;51321;50.428;8.378;2023-06-22T15:24:14;28.80;92.90
64855;DHT22;51321;50.428;8.378;2023-06-22T15:26:55;28.70;93.10
64855;DHT22;51321;50.428;8.378;2023-06-22T15:29:35;28.70;93.50
64855;DHT22;51321;50.428;8.378;2023-06-22T15:32:18;28.60;94.10
64855;DHT22;51321;50.428;8.378;2023-06-22T15:34:59;28.50;94.60
64855;DHT22;51321;50.428;8.378;2023-06-22T15:37:40;28.40;94.50
64855;DHT22;51321;50.428;8.378;2023-06-22T15:40:21;28.30;94.50
64855;DHT22;51321;50.428;8.378;2023-06-22T15:43:02;28.00;94.50
64855;DHT22;51321;50.428;8.378;2023-06-22T15:45:43;27.80;95.10
64855;DHT22;51321;50.428;8.378;2023-06-22T15:48:26;27.60;96.10
64855;DHT22;51321;50.428;8.378;2023-06-22T15:51:08;27.40;96.00
64855;DHT22;51321;50.428;8.378;2023-06-22T15:53:49;27.30;96.20
64855;DHT22;51321;50.428;8.378;2023-06-22T15:56:30;27.00;95.80
64855;DHT22;51321;50.428;8.378;2023-06-22T15:59:12;26.60;96.60
64855;DHT22;51321;50.428;8.378;2023-06-22T16:01:53;26.30;97.90
64855;DHT22;51321;50.428;8.378;2023-06-22T16:04:36;25.70;99.90
64855;DHT22;51321;50.428;8.378;2023-06-22T16:07:17;25.20;99.90
64855;DHT22;51321;50.428;8.378;2023-06-22T16:09:58;24.80;99.90
64855;DHT22;51321;50.428;8.378;2023-06-22T16:12:42;24.60;99.90
64855;DHT22;51321;50.428;8.378;2023-06-22T16:15:23;24.10;99.90
64855;DHT22;51321;50.428;8.378;2023-06-22T16:18:05;23.50;99.90
64855;DHT22;51321;50.428;8.378;2023-06-22T16:20:49;23.20;99.90
64855;DHT22;51321;50.428;8.378;2023-06-22T16:23:31;23.10;99.90
64855;DHT22;51321;50.428;8.378;2023-06-22T16:26:12;23.00;99.90
64855;DHT22;51321;50.428;8.378;2023-06-22T16:28:53;22.90;99.90
64855;DHT22;51321;50.428;8.378;2023-06-22T16:31:34;22.80;99.90
64855;DHT22;51321;50.428;8.378;2023-06-22T16:34:15;22.80;99.90
64855;DHT22;51321;50.428;8.378;2023-06-22T16:36:58;22.80;99.90
64855;DHT22;51321;50.428;8.378;2023-06-22T16:39:39;22.90;99.90
64855;DHT22;51321;50.428;8.378;2023-06-22T16:42:20;22.80;99.90
64855;DHT22;51321;50.428;8.378;2023-06-22T16:45:01;22.80;99.90
64855;DHT22;51321;50.428;8.378;2023-06-22T16:47:43;22.90;99.90
64855;DHT22;51321;50.428;8.378;2023-06-22T16:50:25;22.90;99.90
64855;DHT22;51321;50.428;8.378;2023-06-22T16:53:07;23.00;99.90
64855;DHT22;51321;50.428;8.378;2023-06-22T16:55:49;22.90;99.90
64855;DHT22;51321;50.428;8.378;2023-06-22T16:58:32;22.80;99.90
64855;DHT22;51321;50.428;8.378;2023-06-22T17:01:14;22.80;99.90
64855;DHT22;51321;50.428;8.378;2023-06-22T17:04:01;22.90;99.90
64855;DHT22;51321;50.428;8.378;2023-06-22T17:06:51;22.90;99.90